Perrysville, IN

5:38 AM EST on December 20, 2014 (GMT -0500)
WX9C | Change Station
CLOSE
Current Station
Personal Weather Station
Location: Covington, IN
Elevation: 617 ft
Nearby Weather Stations

Elev 617 ft 40.13 °N, 87.38 °W | Updated 5 seconds ago

Overcast
Overcast
29.1 °F
Feels Like 29 °F
N
0.7
Wind Variable Wind from South
Gusts 0.7 mph

Today
High -- | Low -- °F
--% Chance of Precip.
Yesterday
High -- | Low -- °F
Precip. -- in
8:07 AM 5:27 PM
Waning Crescent, 3% visible
Pressure 30.24 in
Visibility 5.0 miles
Clouds Overcast 2600 ft
Windchill 29 °F
Dew Point 27 °F
Humidity 90%
Rainfall 0.00 in
Snow Depth Not available.
UV 0 out of 12
Pollen .10 out of 12
Air Quality Not available.
Flu Activity Not available.
METAR KDNV 201015Z AUTO 00000KT 5SM BR OVC026 M02/M03 A3024 RMK AO2 T10201027

More Conditions Fewer Conditions

Pressure 30.24 in
Visibility 5.0 miles
Clouds Overcast 2600 ft
Windchill 29 °F
Dew Point 27 °F
Humidity 90%
Rainfall 0.00 in
Snow Depth Not available.
UV 0 out of 12
Pollen .10 out of 12
Air Quality Not available.
Flu Activity Not available.
METAR KDNV 201015Z AUTO 00000KT 5SM BR OVC026 M02/M03 A3024 RMK AO2 T10201027

More Conditions Fewer Conditions

10-Day Weather Forecast

Almanac

Astronomy

Dec. 20, 2014 Rise Set
Actual Time
Civil Twilight
Nautical Twilight
Astronomical Twilight
Moon
Length of Visible Light
Length of Day
Tomorrow will be .
, % of the Moon is Illuminated

Today's Extremes

State Highs State Lows

Community

WunderPhotos

Upload Photos

1,779,151 photos uploaded!

WunderBlogs® & News

Nearby

Air Quality

  Air Quality AQ Index Pollutant
Not available.

Snow Depth

Station Depth Elevation

Earthquake Activity

City Distance Mag. Time & Date
Minimum magnitude displayed is 2.5.

Coastal Water Temperatures

Place Temperature

Nearby Weather Stations